createdAt,value
2017-11-17T00:01:44.355Z,22.10
2017-11-17T00:04:11.823Z,21.23
2017-11-17T00:06:39.267Z,21.50
2017-11-17T00:09:06.750Z,22.50
2017-11-17T00:11:34.222Z,22.70
2017-11-17T00:14:01.675Z,24.27
2017-11-17T00:16:29.214Z,23.17
2017-11-17T00:18:56.667Z,23.17
2017-11-17T00:21:24.118Z,23.10
2017-11-17T00:23:51.695Z,24.30
2017-11-17T00:26:19.239Z,23.77
2017-11-17T00:28:46.697Z,24.70
2017-11-17T00:31:14.872Z,24.60
2017-11-17T00:33:42.376Z,24.00
2017-11-17T00:36:09.827Z,22.47
2017-11-17T00:38:37.286Z,22.97
2017-11-17T00:41:04.730Z,22.77
2017-11-17T00:43:32.960Z,23.40
2017-11-17T00:46:00.398Z,22.13
2017-11-17T00:48:27.873Z,23.60
2017-11-17T00:50:55.541Z,21.43
2017-11-17T00:53:23.015Z,23.00
2017-11-17T00:55:50.454Z,22.93
2017-11-17T00:58:18.014Z,22.90
2017-11-17T01:00:45.467Z,22.07
2017-11-17T01:03:13.019Z,22.00
2017-11-17T01:05:40.474Z,24.40
2017-11-17T01:08:07.930Z,24.83
2017-11-17T01:10:35.481Z,22.50
2017-11-17T01:13:03.033Z,23.67
2017-11-17T01:15:30.486Z,23.13
2017-11-17T01:17:57.959Z,21.60
2017-11-17T01:20:25.414Z,21.60
2017-11-17T01:22:52.935Z,23.37
2017-11-17T01:25:20.383Z,23.00
2017-11-17T01:27:47.883Z,22.30
2017-11-17T01:30:15.351Z,22.33
2017-11-17T01:32:42.798Z,23.10
2017-11-17T01:35:10.354Z,21.17
2017-11-17T01:37:37.849Z,20.93
2017-11-17T01:40:05.297Z,23.20
2017-11-17T01:42:33.634Z,21.57
2017-11-17T01:45:01.151Z,24.10
2017-11-17T01:47:28.622Z,21.20
2017-11-17T01:49:56.068Z,23.10
2017-11-17T01:52:23.518Z,23.13
2017-11-17T01:54:50.974Z,23.73
2017-11-17T01:57:18.438Z,20.43
2017-11-17T01:59:45.917Z,22.60
2017-11-17T02:02:20.190Z,21.83
2017-11-17T02:04:47.650Z,22.37
2017-11-17T02:07:15.106Z,23.40
2017-11-17T02:09:42.610Z,23.17
2017-11-17T02:12:10.067Z,22.70
2017-11-17T02:14:37.587Z,22.17
2017-11-17T02:17:05.087Z,21.97
2017-11-17T02:19:32.553Z,24.87
2017-11-17T02:22:00.008Z,22.90
2017-11-17T02:24:27.567Z,22.40
2017-11-17T02:26:55.021Z,20.63
2017-11-17T02:29:22.578Z,20.87
2017-11-17T02:31:50.043Z,17.57
2017-11-17T02:34:18.268Z,17.07
2017-11-17T02:36:45.727Z,12.77
2017-11-17T02:39:13.238Z,15.20
2017-11-17T02:41:40.708Z,14.90
2017-11-17T02:44:08.217Z,14.40
2017-11-17T02:46:35.670Z,14.90
2017-11-17T02:49:03.229Z,13.70
2017-11-17T02:51:30.696Z,15.50
2017-11-17T02:53:58.151Z,12.80
2017-11-17T02:56:25.607Z,13.50
2017-11-17T02:58:53.055Z,15.43
2017-11-17T03:01:20.523Z,19.43
2017-11-17T03:03:48.076Z,21.70
2017-11-17T03:06:15.519Z,21.37
2017-11-17T03:08:42.983Z,19.43
2017-11-17T03:11:10.530Z,19.70
2017-11-17T03:13:38.007Z,21.27
2017-11-17T03:16:05.549Z,20.83
2017-11-17T03:18:33.075Z,21.80
2017-11-17T03:21:00.587Z,22.40
2017-11-17T03:23:28.194Z,21.27
2017-11-17T03:25:55.757Z,21.40
2017-11-17T03:28:23.230Z,21.40
2017-11-17T03:30:50.683Z,23.00
2017-11-17T03:33:18.142Z,21.97
2017-11-17T03:35:45.593Z,22.03
2017-11-17T03:38:13.062Z,21.87
2017-11-17T03:40:40.522Z,21.57
2017-11-17T03:43:08.075Z,25.30
2017-11-17T03:45:35.530Z,24.47
2017-11-17T03:48:03.009Z,23.40
2017-11-17T03:50:31.214Z,23.00
2017-11-17T03:52:58.674Z,23.97
2017-11-17T03:55:26.177Z,23.50
2017-11-17T03:57:53.730Z,23.43
2017-11-17T04:00:21.273Z,22.07
2017-11-17T04:02:48.741Z,22.97
2017-11-17T04:05:16.200Z,22.50
2017-11-17T04:07:43.675Z,23.10
2017-11-17T04:10:11.204Z,21.90
2017-11-17T04:12:38.661Z,24.80
2017-11-17T04:15:06.105Z,23.53
2017-11-17T04:17:33.566Z,24.50
2017-11-17T04:20:01.014Z,24.07
2017-11-17T04:22:28.471Z,22.73
2017-11-17T04:24:55.930Z,23.23
2017-11-17T04:27:23.378Z,22.07
2017-11-17T04:29:50.869Z,24.53
2017-11-17T04:32:19.126Z,25.67
2017-11-17T04:34:46.689Z,23.43
2017-11-17T04:37:14.134Z,22.80
2017-11-17T04:39:41.600Z,23.47
2017-11-17T04:42:09.059Z,21.60
2017-11-17T04:44:36.617Z,22.77
2017-11-17T04:47:04.094Z,22.20
2017-11-17T04:49:32.331Z,23.00
2017-11-17T04:51:59.786Z,25.10
2017-11-17T04:54:27.245Z,23.80
2017-11-17T04:56:54.717Z,25.40
2017-11-17T04:59:22.282Z,24.37
2017-11-17T05:01:51.246Z,24.57
2017-11-17T05:04:18.814Z,24.07
2017-11-17T05:06:46.267Z,24.93
2017-11-17T05:09:13.823Z,26.50
2017-11-17T05:11:41.294Z,21.07
2017-11-17T05:14:09.555Z,22.70
2017-11-17T05:16:37.043Z,23.70
2017-11-17T05:19:05.292Z,25.50
2017-11-17T05:21:32.854Z,23.90
2017-11-17T05:24:00.326Z,24.90
2017-11-17T05:26:28.678Z,23.33
2017-11-17T05:28:56.195Z,23.60
2017-11-17T05:31:23.650Z,24.53
2017-11-17T05:33:51.107Z,22.80
2017-11-17T05:36:18.818Z,24.77
2017-11-17T05:38:46.932Z,23.73
2017-11-17T05:41:14.440Z,27.00
2017-11-17T05:43:41.902Z,26.10
2017-11-17T05:46:09.458Z,24.90
2017-11-17T05:48:36.945Z,25.33
2017-11-17T05:51:04.451Z,24.47
2017-11-17T05:53:31.907Z,25.27
2017-11-17T05:55:59.359Z,27.07
2017-11-17T05:58:26.847Z,25.63
2017-11-17T06:00:55.093Z,26.83
2017-11-17T06:03:22.557Z,26.90
2017-11-17T06:05:50.077Z,26.27
2017-11-17T06:08:17.565Z,27.30
2017-11-17T06:10:45.022Z,26.97
2017-11-17T06:13:12.570Z,27.20
2017-11-17T06:15:40.205Z,24.77
2017-11-17T06:18:07.663Z,28.40
2017-11-17T06:20:35.137Z,26.23
2017-11-17T06:23:02.716Z,26.13
2017-11-17T06:25:30.157Z,27.23
2017-11-17T06:27:57.790Z,26.17
2017-11-17T06:30:25.235Z,27.50
2017-11-17T06:32:52.730Z,27.93
2017-11-17T06:35:20.263Z,28.17
2017-11-17T06:37:47.750Z,24.40
2017-11-17T06:40:15.215Z,26.97
2017-11-17T06:42:42.766Z,26.83
2017-11-17T06:45:10.221Z,27.17
2017-11-17T06:47:37.689Z,27.80
2017-11-17T06:50:05.176Z,28.40
2017-11-17T06:52:32.623Z,27.87
2017-11-17T06:55:00.837Z,27.93
2017-11-17T06:57:28.295Z,27.20
2017-11-17T06:59:56.587Z,28.83
2017-11-17T07:02:24.046Z,28.50
2017-11-17T07:04:51.502Z,27.30
2017-11-17T07:07:19.587Z,25.57
2017-11-17T07:09:47.049Z,28.00
2017-11-17T07:12:15.262Z,27.83
2017-11-17T07:14:42.722Z,26.60
2017-11-17T07:17:10.167Z,27.20
2017-11-17T07:19:37.630Z,26.57
2017-11-17T07:22:05.114Z,30.80
2017-11-17T07:24:32.684Z,27.70
2017-11-17T07:27:00.250Z,28.53
2017-11-17T07:29:27.742Z,27.90
2017-11-17T07:31:55.202Z,26.77
2017-11-17T07:34:22.675Z,29.13
2017-11-17T07:36:50.134Z,27.50
2017-11-17T07:39:17.624Z,26.40
2017-11-17T07:41:45.174Z,28.00
2017-11-17T07:44:12.625Z,29.37
2017-11-17T07:46:40.075Z,27.27
2017-11-17T07:49:07.537Z,28.93
2017-11-17T07:51:35.164Z,28.07
2017-11-17T07:54:02.627Z,27.53
2017-11-17T07:56:30.082Z,27.83
2017-11-17T07:58:57.622Z,28.73
2017-11-17T08:01:26.094Z,27.10
2017-11-17T08:03:53.603Z,27.37
2017-11-17T08:06:21.046Z,27.80
2017-11-17T08:08:48.493Z,28.00
2017-11-17T08:11:17.060Z,27.67
2017-11-17T08:13:44.578Z,28.53
2017-11-17T08:16:12.110Z,28.00
2017-11-17T08:18:47.078Z,25.37
2017-11-17T08:21:16.300Z,27.60
2017-11-17T08:23:43.742Z,28.40
2017-11-17T08:26:11.193Z,26.93
2017-11-17T08:28:38.708Z,28.67
2017-11-17T08:31:06.188Z,29.60
2017-11-17T08:33:34.412Z,27.90
2017-11-17T08:36:01.874Z,25.77
2017-11-17T08:38:29.341Z,28.17
2017-11-17T08:40:56.794Z,26.63
2017-11-17T08:43:24.349Z,26.97
2017-11-17T08:45:52.824Z,25.07
2017-11-17T08:48:20.296Z,28.50
2017-11-17T08:50:47.851Z,27.37
2017-11-17T08:53:15.382Z,25.33
2017-11-17T08:55:42.866Z,25.30
2017-11-17T08:58:10.322Z,26.40
2017-11-17T09:00:37.882Z,27.90
2017-11-17T09:03:05.342Z,26.90
2017-11-17T09:05:32.900Z,25.90
2017-11-17T09:08:00.363Z,25.87
2017-11-17T09:10:27.846Z,28.10
2017-11-17T09:12:55.888Z,28.00
2017-11-17T09:15:23.821Z,25.30
2017-11-17T09:17:51.288Z,28.97
2017-11-17T09:22:53.474Z,30.23
2017-11-17T09:25:21.001Z,28.43
2017-11-17T09:27:48.486Z,27.70
2017-11-17T09:30:16.042Z,28.10
2017-11-17T09:32:43.542Z,25.50
2017-11-17T09:35:11.774Z,27.50
2017-11-17T09:37:39.227Z,27.90
2017-11-17T09:40:06.674Z,28.00
2017-11-17T09:42:34.132Z,26.57
2017-11-17T09:45:01.591Z,27.80
2017-11-17T09:47:29.048Z,27.93
2017-11-17T09:49:56.506Z,30.20
2017-11-17T09:52:23.947Z,25.27
2017-11-17T09:54:51.487Z,25.17
2017-11-17T09:57:18.942Z,25.40
2017-11-17T09:59:46.442Z,25.37
2017-11-17T10:02:14.497Z,28.73
2017-11-17T10:04:41.958Z,26.70
2017-11-17T10:07:09.527Z,29.90
2017-11-17T10:09:36.985Z,28.40
2017-11-17T10:12:04.430Z,26.03
2017-11-17T10:14:31.927Z,28.30
2017-11-17T10:16:59.438Z,25.60
2017-11-17T10:19:26.911Z,26.90
2017-11-17T10:21:54.349Z,25.03
2017-11-17T10:24:21.809Z,27.20
2017-11-17T10:26:49.372Z,26.37
2017-11-17T10:29:16.888Z,28.23
2017-11-17T10:31:44.331Z,27.43
2017-11-17T10:34:11.827Z,25.07
2017-11-17T10:36:39.294Z,27.73
2017-11-17T10:39:06.850Z,27.07
2017-11-17T10:41:35.271Z,28.17
2017-11-17T10:44:02.726Z,26.70
2017-11-17T10:46:30.190Z,25.87
2017-11-17T10:48:57.732Z,25.40
2017-11-17T10:51:25.990Z,25.03
2017-11-17T10:53:53.445Z,25.47
2017-11-17T10:56:32.374Z,25.30
2017-11-17T10:59:04.459Z,27.80
2017-11-17T11:01:31.943Z,26.53
2017-11-17T11:03:59.390Z,23.37
2017-11-17T11:06:26.846Z,23.93
2017-11-17T11:08:54.307Z,26.40
2017-11-17T11:11:27.414Z,23.30
2017-11-17T11:13:54.854Z,25.17
2017-11-17T11:16:22.328Z,23.80
2017-11-17T11:18:49.771Z,24.50
2017-11-17T11:21:17.249Z,25.43
2017-11-17T11:23:44.789Z,28.10
2017-11-17T11:26:12.246Z,25.47
2017-11-17T11:28:39.689Z,26.30
2017-11-17T11:31:07.147Z,24.77
2017-11-17T11:33:34.627Z,25.00
2017-11-17T11:36:02.246Z,28.10
2017-11-17T11:38:29.702Z,26.30
2017-11-17T11:40:57.265Z,26.00
2017-11-17T11:43:24.785Z,25.37
2017-11-17T11:45:53.035Z,25.97
2017-11-17T11:48:20.598Z,26.10
2017-11-17T11:50:48.045Z,25.47
2017-11-17T11:53:15.581Z,26.50
2017-11-17T11:55:43.017Z,26.40
2017-11-17T11:58:10.506Z,27.77
2017-11-17T12:00:38.069Z,29.03
2017-11-17T12:03:05.615Z,25.83
2017-11-17T12:05:33.214Z,24.87
2017-11-17T12:08:01.735Z,25.90
2017-11-17T12:10:29.181Z,26.00
2017-11-17T12:12:56.671Z,26.97
2017-11-17T12:15:24.124Z,24.27
2017-11-17T12:17:52.006Z,23.50
2017-11-17T12:20:20.275Z,25.27
2017-11-17T12:22:47.741Z,25.53
2017-11-17T12:25:15.278Z,23.97
2017-11-17T12:27:42.725Z,25.50
2017-11-17T12:30:10.166Z,24.20
2017-11-17T12:32:37.623Z,25.87
2017-11-17T12:35:05.093Z,24.40
2017-11-17T12:37:32.649Z,25.23
2017-11-17T12:40:00.109Z,26.00
2017-11-17T12:42:27.587Z,26.67
2017-11-17T12:44:55.053Z,25.97
2017-11-17T12:47:22.501Z,25.30
2017-11-17T12:49:49.949Z,26.70
2017-11-17T12:52:17.407Z,27.10
2017-11-17T12:54:44.899Z,25.73
2017-11-17T12:57:13.176Z,25.47
2017-11-17T12:59:40.655Z,27.93
2017-11-17T13:02:08.134Z,26.03
2017-11-17T13:04:35.686Z,25.93
2017-11-17T13:07:03.339Z,27.40
2017-11-17T13:09:30.790Z,25.63
2017-11-17T13:11:58.262Z,27.10
2017-11-17T13:14:25.738Z,27.10
2017-11-17T13:16:53.186Z,27.23
2017-11-17T13:19:20.635Z,28.27
2017-11-17T13:21:48.082Z,26.97
2017-11-17T13:24:15.659Z,28.77
2017-11-17T13:26:43.158Z,27.87
2017-11-17T13:29:10.630Z,25.67
2017-11-17T13:31:38.107Z,28.90
2017-11-17T13:34:05.584Z,29.53
2017-11-17T13:36:33.122Z,27.80
2017-11-17T13:39:00.681Z,26.33
2017-11-17T13:41:28.251Z,25.63
2017-11-17T13:43:55.803Z,27.93
2017-11-17T13:46:23.266Z,27.23
2017-11-17T13:48:50.706Z,25.50
2017-11-17T13:51:18.265Z,27.80
2017-11-17T13:53:45.834Z,26.77
2017-11-17T13:56:13.389Z,25.97
2017-11-17T13:58:40.846Z,26.80
2017-11-17T14:01:08.335Z,28.00
2017-11-17T14:03:36.538Z,27.67
2017-11-17T14:06:03.990Z,28.50
2017-11-17T14:08:31.441Z,29.77
2017-11-17T14:10:58.906Z,26.27
2017-11-17T14:13:26.351Z,25.47
2017-11-17T14:15:53.814Z,24.77
2017-11-17T14:18:21.266Z,26.63
2017-11-17T14:20:48.726Z,27.63
2017-11-17T14:23:16.199Z,27.93
2017-11-17T14:25:43.655Z,26.23
2017-11-17T14:28:11.099Z,26.63
2017-11-17T14:30:38.554Z,26.50
2017-11-17T14:33:06.010Z,28.50
2017-11-17T14:35:33.486Z,30.43
2017-11-17T14:38:00.942Z,25.57
2017-11-17T14:40:28.386Z,26.17
2017-11-17T14:42:55.846Z,27.10
2017-11-17T14:45:23.302Z,27.90
2017-11-17T14:47:50.757Z,26.50
2017-11-17T14:50:18.319Z,26.17
2017-11-17T14:52:45.778Z,32.53
2017-11-17T14:55:13.237Z,26.20
2017-11-17T14:57:40.693Z,26.50
2017-11-17T15:00:08.196Z,27.17
2017-11-17T15:02:36.422Z,26.37
2017-11-17T15:05:03.991Z,26.23
2017-11-17T15:07:31.451Z,26.47
2017-11-17T15:09:58.994Z,27.00
2017-11-17T15:12:26.466Z,26.27
2017-11-17T15:14:53.922Z,27.03
2017-11-17T15:17:21.370Z,28.50
2017-11-17T15:19:48.813Z,27.57
2017-11-17T15:22:16.284Z,28.40
2017-11-17T15:24:43.749Z,27.00
2017-11-17T15:27:11.202Z,25.70
2017-11-17T15:29:38.652Z,27.17
2017-11-17T15:32:06.200Z,26.40
2017-11-17T15:34:33.650Z,28.37
2017-11-17T15:37:01.214Z,28.43
2017-11-17T15:39:28.801Z,27.27
2017-11-17T15:41:57.014Z,27.87
2017-11-17T15:44:24.502Z,27.97
2017-11-17T15:46:51.979Z,28.70
2017-11-17T15:49:20.194Z,27.93
2017-11-17T15:51:47.650Z,25.93
2017-11-17T15:54:15.169Z,28.07
2017-11-17T15:56:43.403Z,27.50
2017-11-17T15:59:10.971Z,28.60
2017-11-17T16:01:38.463Z,26.80
2017-11-17T16:04:06.693Z,26.30
2017-11-17T16:06:34.392Z,28.33
2017-11-17T16:09:02.606Z,26.00
2017-11-17T16:11:30.067Z,25.10
2017-11-17T16:13:57.534Z,29.67
2017-11-17T16:16:24.982Z,30.10
2017-11-17T16:18:52.437Z,26.53
2017-11-17T16:21:19.911Z,27.57
2017-11-17T16:23:47.353Z,26.30
2017-11-17T16:26:14.890Z,26.30
2017-11-17T16:28:42.372Z,28.20
2017-11-17T16:31:09.841Z,27.40
2017-11-17T16:33:37.359Z,25.50
2017-11-17T16:36:04.815Z,25.03
2017-11-17T16:38:32.270Z,24.87
2017-11-17T16:40:59.734Z,25.20
2017-11-17T16:43:27.187Z,24.50
2017-11-17T16:45:54.678Z,26.47
2017-11-17T16:48:22.135Z,26.63
2017-11-17T16:50:49.946Z,25.67
2017-11-17T16:53:17.490Z,26.17
2017-11-17T16:55:44.998Z,26.87
2017-11-17T16:58:12.572Z,25.80
2017-11-17T17:00:40.084Z,26.73
2017-11-17T17:03:07.516Z,26.10
2017-11-17T17:05:35.773Z,25.03
2017-11-17T17:08:03.229Z,27.93
2017-11-17T17:10:30.710Z,27.50
2017-11-17T17:12:58.936Z,27.87
2017-11-17T17:15:26.393Z,26.23
2017-11-17T17:17:53.964Z,27.70
2017-11-17T17:20:21.411Z,27.53
2017-11-17T17:22:48.927Z,26.50
2017-11-17T17:25:16.414Z,28.17
2017-11-17T17:27:43.890Z,26.60
2017-11-17T17:30:11.455Z,27.17
2017-11-17T17:32:38.913Z,27.37
2017-11-17T17:35:06.470Z,27.70
2017-11-17T17:37:34.697Z,27.67
2017-11-17T17:40:02.139Z,26.30
2017-11-17T17:42:29.593Z,27.20
2017-11-17T17:44:57.047Z,27.90
2017-11-17T17:47:24.522Z,27.60
2017-11-17T17:49:52.742Z,27.47
2017-11-17T17:52:20.982Z,26.93
2017-11-17T17:54:48.433Z,29.50
2017-11-17T17:57:15.890Z,29.47
2017-11-17T17:59:43.351Z,28.97
2017-11-17T18:02:10.798Z,31.10
2017-11-17T18:04:38.238Z,28.27
2017-11-17T18:07:05.682Z,29.60
2017-11-17T18:09:33.146Z,30.97
2017-11-17T18:12:00.804Z,28.93
2017-11-17T18:14:28.289Z,26.63
2017-11-17T18:16:55.756Z,29.00
2017-11-17T18:19:23.217Z,29.13
2017-11-17T18:21:50.676Z,29.50
2017-11-17T18:24:18.135Z,30.07
2017-11-17T18:26:45.591Z,32.83
2017-11-17T18:29:13.064Z,30.07
2017-11-17T18:31:40.482Z,27.30
2017-11-17T18:34:07.938Z,27.60
2017-11-17T18:36:35.836Z,32.00
2017-11-17T18:39:03.281Z,31.07
2017-11-17T18:41:30.817Z,27.00
2017-11-17T18:43:58.376Z,31.80
2017-11-17T18:46:25.817Z,28.90
2017-11-17T18:48:53.395Z,29.33
2017-11-17T18:51:20.847Z,30.30
2017-11-17T18:53:48.393Z,30.63
2017-11-17T18:56:15.831Z,26.90
2017-11-17T18:58:43.362Z,26.23
2017-11-17T19:01:10.870Z,30.73
2017-11-17T19:03:38.379Z,29.27
2017-11-17T19:06:06.560Z,28.90
2017-11-17T19:08:34.037Z,28.87
2017-11-17T19:11:01.530Z,30.77
2017-11-17T19:13:28.966Z,29.30
2017-11-17T19:15:58.010Z,28.43
2017-11-17T19:18:25.385Z,29.00
2017-11-17T19:20:52.842Z,28.17
2017-11-17T19:23:20.310Z,25.87
2017-11-17T19:25:47.771Z,26.13
2017-11-17T19:28:15.325Z,27.57
2017-11-17T19:30:42.783Z,25.57
2017-11-17T19:33:10.242Z,26.77
2017-11-17T19:35:38.203Z,25.53
2017-11-17T19:38:05.812Z,28.70
2017-11-17T19:40:34.052Z,29.10
2017-11-17T19:43:01.656Z,25.83
2017-11-17T19:45:29.178Z,29.43
2017-11-17T19:47:56.618Z,28.33
2017-11-17T19:50:24.074Z,29.90
2017-11-17T19:52:52.152Z,28.70
2017-11-17T19:55:20.514Z,27.33
2017-11-17T19:57:47.975Z,30.13
2017-11-17T20:00:15.436Z,29.00
2017-11-17T20:02:42.886Z,30.87
2017-11-17T20:05:10.446Z,33.13
2017-11-17T20:07:37.987Z,33.97
2017-11-17T20:10:05.608Z,29.90
2017-11-17T20:12:33.161Z,29.77
2017-11-17T20:15:01.367Z,34.50
2017-11-17T20:17:28.826Z,30.80
2017-11-17T20:19:56.319Z,29.80
2017-11-17T20:22:23.758Z,27.90
2017-11-17T20:24:51.379Z,31.70
2017-11-17T20:27:18.903Z,30.43
2017-11-17T20:29:47.114Z,31.13
2017-11-17T20:32:14.640Z,30.70
2017-11-17T20:34:42.901Z,29.40
2017-11-17T20:37:10.406Z,31.50
2017-11-17T20:39:37.942Z,29.50
2017-11-17T20:42:05.386Z,31.60
2017-11-17T20:44:32.899Z,31.77
2017-11-17T20:47:00.363Z,31.20
2017-11-17T20:49:29.513Z,31.10
2017-11-17T20:51:57.018Z,32.70
2017-11-17T20:54:24.505Z,30.13
2017-11-17T20:56:52.785Z,32.70
2017-11-17T20:59:21.047Z,32.47
2017-11-17T21:01:49.267Z,35.10
2017-11-17T21:04:17.528Z,31.77
2017-11-17T21:06:45.007Z,30.00
2017-11-17T21:09:12.495Z,28.83
2017-11-17T21:11:39.982Z,30.20
2017-11-17T21:14:07.429Z,28.57
2017-11-17T21:16:34.925Z,27.50
2017-11-17T21:19:02.391Z,27.83
2017-11-17T21:21:29.954Z,29.30
2017-11-17T21:23:57.433Z,30.53
2017-11-17T21:26:25.111Z,29.73
2017-11-17T21:28:53.355Z,27.40
2017-11-17T21:31:20.814Z,29.37
2017-11-17T21:33:48.250Z,27.03
2017-11-17T21:36:15.720Z,27.07
2017-11-17T21:38:43.182Z,30.90
2017-11-17T21:41:10.736Z,31.60
2017-11-17T21:43:38.202Z,29.00
2017-11-17T21:46:06.551Z,30.17
2017-11-17T21:48:34.120Z,30.40
2017-11-17T21:51:01.586Z,32.17
2017-11-17T21:53:29.043Z,31.73
2017-11-17T21:55:56.498Z,31.80
2017-11-17T21:58:24.713Z,31.47
2017-11-17T22:00:52.162Z,28.90
2017-11-17T22:03:19.618Z,32.17
2017-11-17T22:05:47.063Z,30.40
2017-11-17T22:08:14.505Z,31.87
2017-11-17T22:10:42.758Z,30.43
2017-11-17T22:13:10.229Z,31.27
2017-11-17T22:15:38.549Z,30.00
2017-11-17T22:18:06.012Z,32.97
2017-11-17T22:20:33.495Z,33.03
2017-11-17T22:23:00.952Z,29.30
2017-11-17T22:25:28.520Z,27.60
2017-11-17T22:27:56.079Z,29.10
2017-11-17T22:30:24.306Z,30.80
2017-11-17T22:32:51.781Z,29.97
2017-11-17T22:35:19.381Z,30.07
2017-11-17T22:37:46.826Z,29.87
2017-11-17T22:40:14.266Z,26.80
2017-11-17T22:42:41.718Z,29.70
2017-11-17T22:45:09.307Z,31.10
2017-11-17T22:47:37.523Z,31.73
2017-11-17T22:50:04.998Z,28.73
2017-11-17T22:52:32.450Z,28.47
2017-11-17T22:54:59.905Z,28.70
2017-11-17T22:57:27.374Z,29.37
2017-11-17T22:59:54.850Z,30.13
2017-11-17T23:02:22.297Z,30.97
2017-11-17T23:04:49.738Z,30.93
2017-11-17T23:07:17.186Z,27.60
2017-11-17T23:09:44.646Z,29.00
2017-11-17T23:12:12.102Z,29.57
2017-11-17T23:14:39.642Z,27.53
2017-11-17T23:17:07.108Z,28.77
2017-11-17T23:19:34.562Z,26.83
2017-11-17T23:22:02.010Z,27.40
2017-11-17T23:24:29.513Z,27.10
2017-11-17T23:26:57.767Z,28.07
2017-11-17T23:29:25.317Z,28.83
2017-11-17T23:31:52.812Z,27.87
2017-11-17T23:34:21.435Z,27.23
2017-11-17T23:36:48.906Z,28.10
2017-11-17T23:39:16.354Z,27.43
2017-11-17T23:41:43.942Z,30.47
2017-11-17T23:44:12.311Z,30.50
2017-11-17T23:46:39.851Z,28.70
2017-11-17T23:49:07.322Z,33.60
2017-11-17T23:51:34.882Z,28.77
2017-11-17T23:54:02.345Z,27.17
2017-11-17T23:56:29.797Z,27.17
2017-11-17T23:58:57.351Z,26.90
